Time;durP1;ratioP1;P1;durP2;ratioP2;P2;SDS_P1;SDS_P2;PMS_P1;PMS_P2;Temp;Humidity;BMP_temperature;BMP_pressure;BME280_temperature;BME280_humidity;BME280_pressure;Samples;Min_cycle;Max_cycle;Signal;HPM_P1;HPM_P2
2022/09/05 00:01:40;;;;;;;8.90;3.38;;;;;;;13.29;47.44;99754.44;5051564;28;20413;-72
2022/09/05 00:04:14;;;;;;;7.75;3.75;;;;;;;13.18;47.80;99732.63;5035257;28;20050;-71
2022/09/05 00:06:46;;;;;;;11.65;3.58;;;;;;;13.09;48.08;99723.00;5069146;28;20500;-70
2022/09/05 00:09:41;;;;;;;11.52;3.58;;;;;;;13.24;47.65;99747.94;5052264;28;20048;-71
2022/09/05 00:12:09;;;;;;;7.82;3.88;;;;;;;13.07;47.40;99757.84;5053718;28;20514;-71
2022/09/05 00:14:50;;;;;;;8.15;3.50;;;;;;;13.06;47.71;99752.66;5072133;28;20130;-73
2022/09/05 00:17:29;;;;;;;7.30;2.90;;;;;;;12.90;47.95;99750.84;5071002;28;20043;-71
2022/09/05 00:19:55;;;;;;;6.25;2.70;;;;;;;12.55;48.83;99739.72;5036917;28;20044;-71
2022/09/05 00:22:47;;;;;;;7.68;2.83;;;;;;;12.80;48.93;99750.22;5069833;28;20049;-72
2022/09/05 00:25:25;;;;;;;9.57;2.60;;;;;;;12.81;49.09;99751.03;5069861;28;20074;-71
2022/09/05 00:28:06;;;;;;;4.75;2.72;;;;;;;12.78;49.09;99746.88;5052988;28;20098;-73
2022/09/05 00:30:40;;;;;;;12.90;3.00;;;;;;;12.72;48.97;99746.72;5053932;28;20052;-72
2022/09/05 00:33:30;;;;;;;5.88;2.88;;;;;;;12.75;49.36;99741.88;5054366;28;20040;-73
2022/09/05 00:36:27;;;;;;;5.45;3.22;;;;;;;12.79;49.47;99745.03;5071802;28;20645;-72
2022/09/05 00:39:24;;;;;;;4.13;2.50;;;;;;;12.70;49.42;99743.41;5071557;28;20044;-72
2022/09/05 00:41:53;;;;;;;3.78;2.58;;;;;;;12.61;49.80;99742.56;5071679;28;20064;-72
2022/09/05 00:44:22;;;;;;;9.07;2.67;;;;;;;12.66;50.16;99740.22;5071959;28;20055;-71
2022/09/05 00:47:05;;;;;;;4.30;2.58;;;;;;;12.73;49.95;99743.88;5055168;28;20055;-71
2022/09/05 00:49:37;;;;;;;8.27;3.10;;;;;;;12.63;49.93;99732.56;5071920;28;20435;-74
2022/09/05 00:52:19;;;;;;;10.73;3.00;;;;;;;12.70;49.97;99741.53;5055235;28;20479;-72
2022/09/05 00:55:16;;;;;;;8.80;2.90;;;;;;;12.73;50.03;99741.22;5054760;28;20084;-73
2022/09/05 00:58:11;;;;;;;8.10;3.20;;;;;;;12.68;50.18;99738.25;5072759;28;20047;-72
2022/09/05 01:00:59;;;;;;;10.02;3.10;;;;;;;12.62;50.04;99722.94;5054589;28;20063;-72
2022/09/05 01:04:11;;;;;;;6.70;3.05;;;;;;;12.67;50.04;99723.22;5038694;28;20052;-73
2022/09/05 01:07:00;;;;;;;6.05;3.05;;;;;;;12.64;50.26;99728.91;5049439;28;20525;-73
2022/09/05 01:09:36;;;;;;;4.97;3.75;;;;;;;12.60;50.44;99726.75;5054509;28;20040;-73
2022/09/05 01:12:14;;;;;;;7.07;3.90;;;;;;;12.60;50.40;99721.41;5038389;28;20094;-73
2022/09/05 01:14:45;;;;;;;5.72;3.65;;;;;;;12.64;50.53;99733.41;5072399;28;20050;-70
2022/09/05 01:17:51;;;;;;;7.22;3.63;;;;;;;12.69;50.53;99725.72;5054786;28;20044;-71
2022/09/05 01:20:36;;;;;;;5.47;3.40;;;;;;;12.69;50.41;99721.25;5037968;28;20096;-71
2022/09/05 01:23:14;;;;;;;5.47;3.47;;;;;;;12.61;50.85;99721.25;5054040;28;20028;-73
2022/09/05 01:26:14;;;;;;;11.43;3.65;;;;;;;12.63;50.41;99729.91;5071058;28;20412;-74
2022/09/05 01:29:02;;;;;;;5.78;3.78;;;;;;;12.60;50.84;99721.41;5021300;28;20131;-73
2022/09/05 01:31:43;;;;;;;8.45;3.50;;;;;;;12.59;50.63;99717.91;5054130;28;20044;-73
2022/09/05 01:34:24;;;;;;;6.70;3.78;;;;;;;12.42;50.82;99724.28;5054171;28;20101;-75
2022/09/05 01:37:16;;;;;;;5.78;3.28;;;;;;;12.62;50.66;99716.75;5054179;28;20131;-74
2022/09/05 01:39:51;;;;;;;6.18;3.47;;;;;;;12.34;50.87;99715.44;5063412;28;20550;-73
2022/09/05 01:42:23;;;;;;;7.15;2.97;;;;;;;12.32;50.89;99718.28;5037518;28;20637;-71
2022/09/05 01:45:02;;;;;;;7.20;3.20;;;;;;;12.20;50.74;99693.00;5070535;28;20036;-72
2022/09/05 01:48:04;;;;;;;10.20;3.47;;;;;;;12.62;50.43;99706.94;5070588;28;20101;-73
2022/09/05 01:50:38;;;;;;;;;;;;;;;12.65;50.47;99713.75;5021388;28;20530;-73
2022/09/05 01:53:37;;;;;;;6.07;3.20;;;;;;;12.55;50.71;99710.41;5037516;28;19923;-73
2022/09/05 01:56:21;;;;;;;11.20;3.67;;;;;;;12.19;50.72;99704.66;5053607;28;20075;-72
2022/09/05 01:59:23;;;;;;;8.88;4.25;;;;;;;12.55;50.28;99713.09;5053552;28;20139;-73
2022/09/05 02:02:21;;;;;;;7.75;3.40;;;;;;;12.48;50.40;99688.97;5053204;28;20530;-73
2022/09/05 02:05:06;;;;;;;8.98;3.05;;;;;;;12.11;51.02;99691.31;5034681;28;20143;-73
2022/09/05 02:08:26;;;;;;;7.50;3.20;;;;;;;12.56;50.65;99717.44;5052075;28;20504;-72
2022/09/05 02:11:00;;;;;;;6.57;3.47;;;;;;;12.50;50.88;99716.25;5010059;28;20132;-73
2022/09/05 02:13:32;;;;;;;6.93;3.42;;;;;;;12.53;50.83;99717.78;5041968;28;20040;-72
2022/09/05 02:16:05;;;;;;;7.10;3.30;;;;;;;12.49;50.97;99719.09;5068630;28;20045;-71
2022/09/05 02:18:58;;;;;;;6.60;3.80;;;;;;;12.55;50.56;99721.09;5068640;28;20044;-72
2022/09/05 02:21:39;;;;;;;8.13;3.25;;;;;;;12.54;50.54;99716.75;5052752;28;20044;-72
2022/09/05 02:24:22;;;;;;;5.45;3.42;;;;;;;12.59;50.27;99717.91;5069804;28;20038;-72
2022/09/05 02:26:58;;;;;;;8.27;3.65;;;;;;;12.47;51.11;99713.13;5036892;28;20059;-71
2022/09/05 02:29:57;;;;;;;10.07;3.40;;;;;;;12.48;51.28;99717.44;5069784;28;20044;-72
2022/09/05 02:32:35;;;;;;;11.32;3.50;;;;;;;12.42;51.29;99707.47;5053175;28;20491;-71
2022/09/05 02:35:23;;;;;;;4.60;2.85;;;;;;;12.37;51.24;99718.63;5052623;28;20067;-70
2022/09/05 02:37:55;;;;;;;7.18;3.42;;;;;;;12.38;51.24;99724.78;5069896;28;20083;-70
2022/09/05 02:40:29;;;;;;;7.05;3.20;;;;;;;12.12;51.39;99729.41;5036473;28;20048;-70
2022/09/05 02:43:18;;;;;;;7.95;2.80;;;;;;;12.19;51.35;99709.97;5052924;28;20048;-70
2022/09/05 02:46:08;;;;;;;5.30;2.70;;;;;;;12.30;51.10;99733.59;5019938;28;20049;-73
2022/09/05 02:48:55;;;;;;;4.22;2.38;;;;;;;12.29;50.66;99718.63;5036276;28;20078;-73
2022/09/05 02:51:33;;;;;;;6.63;2.92;;;;;;;12.34;51.10;99732.28;5053644;28;20047;-71
2022/09/05 02:54:11;;;;;;;7.45;3.10;;;;;;;12.45;50.62;99733.75;5052652;28;20040;-71
2022/09/05 02:56:53;;;;;;;3.95;2.63;;;;;;;12.57;50.36;99738.59;5020326;28;20040;-74
2022/09/05 02:59:56;;;;;;;4.28;2.70;;;;;;;12.61;49.98;99734.56;5069250;28;20040;-72
2022/09/05 03:02:34;;;;;;;3.63;2.55;;;;;;;12.59;50.33;99733.91;5052569;28;20097;-73
2022/09/05 03:05:06;;;;;;;3.50;2.42;;;;;;;12.62;50.04;99741.59;5035980;28;20052;-71
2022/09/05 03:07:54;;;;;;;5.85;2.90;;;;;;;12.71;49.64;99729.06;5069765;28;20266;-72
2022/09/05 03:10:24;;;;;;;4.85;2.63;;;;;;;12.46;49.79;99730.09;5069376;28;20139;-72
2022/09/05 03:13:23;;;;;;;5.28;2.70;;;;;;;12.84;49.57;99732.06;5036003;28;20496;-72
2022/09/05 03:16:36;;;;;;;4.53;2.70;;;;;;;12.87;49.55;99726.38;5053146;28;20550;-74
2022/09/05 03:19:10;;;;;;;5.53;2.78;;;;;;;12.64;49.74;99722.75;5061783;28;20052;-71
2022/09/05 03:22:15;;;;;;;6.90;2.60;;;;;;;13.02;49.53;99730.84;5036282;28;20068;-71
2022/09/05 03:24:54;;;;;;;6.95;2.40;;;;;;;12.97;49.47;99727.00;5019685;28;20045;-73
2022/09/05 03:27:35;;;;;;;6.97;4.00;;;;;;;13.10;49.30;99728.16;5069164;28;20044;-72
2022/09/05 03:30:10;;;;;;;7.95;4.97;;;;;;;12.92;48.79;99729.34;5052207;28;20048;-73
2022/09/05 03:32:58;;;;;;;5.03;3.20;;;;;;;13.17;48.71;99728.31;5052931;28;20059;-74
2022/09/05 03:35:54;;;;;;;6.65;3.20;;;;;;;13.30;48.29;99731.25;5068938;28;20063;-72
2022/09/05 03:38:39;;;;;;;6.35;3.50;;;;;;;13.30;48.48;99732.09;5035964;28;20094;-71
2022/09/05 03:41:38;;;;;;;5.38;2.80;;;;;;;13.33;48.27;99730.94;5068951;28;20048;-71
2022/09/05 03:44:28;;;;;;;4.45;2.90;;;;;;;13.36;48.07;99726.06;5052249;28;20214;-71
2022/09/05 03:47:01;;;;;;;5.70;2.70;;;;;;;13.34;48.29;99732.56;5070707;28;20565;-70
2022/09/05 03:50:07;;;;;;;7.78;2.67;;;;;;;13.38;47.84;99729.38;5073073;28;20048;-72
2022/09/05 03:53:04;;;;;;;8.70;3.35;;;;;;;13.44;48.31;99725.19;5056317;28;20055;-72
2022/09/05 03:56:27;;;;;;;6.72;2.78;;;;;;;13.45;48.42;99726.88;5039560;28;20104;-72
2022/09/05 03:59:21;;;;;;;4.65;3.00;;;;;;;13.40;48.32;99722.06;5014342;28;20243;-72
2022/09/05 04:01:51;;;;;;;8.75;3.40;;;;;;;13.44;48.69;99725.19;4979967;28;20429;-72
2022/09/05 04:04:36;;;;;;;7.50;3.33;;;;;;;13.39;48.35;99714.22;5042118;28;20076;-71
2022/09/05 04:07:06;;;;;;;7.38;3.50;;;;;;;13.47;48.54;99730.16;5072207;28;20481;-74
2022/09/05 04:09:44;;;;;;;9.77;3.97;;;;;;;13.56;48.49;99727.28;5055550;28;20135;-71
2022/09/05 04:12:18;;;;;;;8.10;3.20;;;;;;;13.54;48.39;99729.31;5039683;28;20044;-71
2022/09/05 04:14:49;;;;;;;5.32;3.17;;;;;;;13.50;48.54;99721.81;5056013;28;20101;-74
2022/09/05 04:17:39;;;;;;;8.75;3.30;;;;;;;13.69;48.11;99726.72;5039810;28;20496;-73
2022/09/05 04:20:44;;;;;;;9.43;3.55;;;;;;;13.74;48.08;99718.19;5049164;28;20144;-71
2022/09/05 04:23:31;;;;;;;5.32;3.30;;;;;;;13.82;48.28;99728.81;5055437;28;20068;-70
2022/09/05 04:26:21;;;;;;;10.00;3.88;;;;;;;13.88;48.00;99722.78;5055574;28;20131;-73
2022/09/05 04:28:58;;;;;;;5.33;3.10;;;;;;;13.74;47.98;99716.34;5058092;28;20053;-73
2022/09/05 04:31:49;;;;;;;6.00;3.08;;;;;;;14.06;47.94;99716.13;5055807;28;20318;-72
2022/09/05 04:35:07;;;;;;;7.38;3.10;;;;;;;14.17;47.73;99720.22;5055587;28;20499;-72
2022/09/05 04:37:36;;;;;;;13.32;3.30;;;;;;;14.00;48.17;99721.34;5031301;28;20052;-71
2022/09/05 04:40:31;;;;;;;6.97;3.40;;;;;;;14.26;47.78;99722.69;5038683;28;20067;-71
2022/09/05 04:43:22;;;;;;;10.27;3.17;;;;;;;14.29;47.72;99722.34;5026759;28;20052;-71
2022/09/05 04:45:53;;;;;;;8.60;3.72;;;;;;;14.37;47.78;99724.09;5053917;28;20071;-74
2022/09/05 04:48:27;;;;;;;6.00;3.40;;;;;;;14.48;47.63;99723.69;5056301;28;20047;-72
2022/09/05 04:50:53;;;;;;;7.18;3.90;;;;;;;14.36;47.68;99712.56;5053875;28;20564;-65
2022/09/05 04:53:32;;;;;;;7.93;3.20;;;;;;;14.56;47.50;99704.91;5060227;28;20788;-65
2022/09/05 04:55:59;;;;;;;8.57;3.47;;;;;;;14.66;47.65;99726.84;5044246;28;20052;-65
2022/09/05 04:58:32;;;;;;;7.50;3.33;;;;;;;14.80;47.37;99726.88;5033047;28;20049;-65
2022/09/05 05:01:07;;;;;;;11.40;3.70;;;;;;;14.89;47.32;99727.63;5043373;28;20045;-64
2022/09/05 05:03:34;;;;;;;7.18;3.00;;;;;;;14.89;47.56;99732.97;5017234;28;20068;-68
2022/09/05 05:06:28;;;;;;;5.22;3.28;;;;;;;15.00;47.36;99736.03;5033252;28;20110;-69
2022/09/05 05:09:44;;;;;;;7.30;3.10;;;;;;;15.11;47.44;99732.88;5016744;28;20044;-65
2022/09/05 05:12:40;;;;;;;7.07;3.53;;;;;;;15.13;47.88;99733.53;5043778;28;20064;-67
2022/09/05 05:15:11;;;;;;;5.45;3.10;;;;;;;15.10;47.91;99735.72;5031341;28;20045;-66
2022/09/05 05:17:58;;;;;;;8.70;3.25;;;;;;;15.23;47.61;99725.22;5040905;28;20056;-66
2022/09/05 05:20:27;;;;;;;6.82;3.15;;;;;;;15.25;47.57;99720.53;5047651;28;20052;-66
2022/09/05 05:23:01;;;;;;;6.07;3.10;;;;;;;15.15;47.44;99725.31;5038044;28;20045;-67
2022/09/05 05:25:33;;;;;;;5.72;2.72;;;;;;;15.45;47.62;99732.34;5064105;28;20040;-67
2022/09/05 05:28:05;;;;;;;6.20;2.83;;;;;;;15.60;47.00;99729.63;5036799;28;20079;-68
2022/09/05 05:30:32;;;;;;;6.65;3.00;;;;;;;15.60;46.47;99726.97;5053879;28;20087;-67
2022/09/05 05:33:02;;;;;;;7.82;2.78;;;;;;;15.77;46.51;99720.38;5059048;28;20075;-67
2022/09/05 05:35:32;;;;;;;3.45;2.70;;;;;;;16.07;45.90;99727.28;5029636;28;20190;-66
2022/09/05 05:38:07;;;;;;;5.13;2.55;;;;;;;16.11;45.25;99742.81;5033051;28;20048;-67
2022/09/05 05:40:34;;;;;;;6.53;2.80;;;;;;;16.35;45.01;99745.09;5032872;28;20516;-67
2022/09/05 05:43:35;;;;;;;5.97;2.85;;;;;;;16.75;44.12;99749.81;5049179;28;20057;-67
2022/09/05 05:46:05;;;;;;;8.10;2.95;;;;;;;16.68;44.05;99732.00;5011259;28;20128;-67
2022/09/05 05:48:38;;;;;;;5.80;2.40;;;;;;;16.96;44.05;99740.84;5049057;28;20064;-68
2022/09/05 05:51:23;;;;;;;7.45;2.78;;;;;;;16.95;43.36;99722.25;5049274;28;20087;-67
2022/09/05 05:54:05;;;;;;;6.15;2.88;;;;;;;17.06;43.21;99745.88;5042241;28;20071;-67
2022/09/05 05:56:44;;;;;;;5.18;3.17;;;;;;;17.16;43.55;99749.88;5049418;28;20040;-67
2022/09/05 05:59:41;;;;;;;5.55;2.70;;;;;;;17.29;42.71;99744.59;5015348;28;20140;-66
2022/09/05 06:02:42;;;;;;;8.63;3.40;;;;;;;17.29;42.36;99746.44;5032184;28;20424;-65
2022/09/05 06:05:27;;;;;;;4.20;2.30;;;;;;;17.30;42.21;99748.91;5031928;28;20061;-65
2022/09/05 06:08:30;;;;;;;7.72;3.00;;;;;;;17.88;41.32;99756.44;5032234;28;20567;-65
2022/09/05 06:11:05;;;;;;;6.78;2.47;;;;;;;18.14;40.72;99744.94;5031898;28;20155;-65
2022/09/05 06:13:53;;;;;;;9.38;3.05;;;;;;;18.43;40.48;99748.09;5031734;28;20052;-65
2022/09/05 06:16:34;;;;;;;3.47;2.30;;;;;;;18.52;39.22;99747.91;5050488;28;20045;-65
2022/09/05 06:19:04;;;;;;;4.13;2.20;;;;;;;18.95;38.34;99760.75;5048070;28;20041;-65
2022/09/05 06:21:50;;;;;;;4.20;2.20;;;;;;;19.29;37.50;99760.50;5048789;28;20052;-65
2022/09/05 06:24:32;;;;;;;6.63;2.58;;;;;;;19.41;37.12;99753.44;5064214;28;20561;-65
2022/09/05 06:27:12;;;;;;;9.43;2.97;;;;;;;19.63;36.82;99759.38;5051876;28;20049;-65
2022/09/05 06:29:58;;;;;;;6.00;2.30;;;;;;;19.78;36.34;99757.22;5068135;28;20552;-65
2022/09/05 06:32:52;;;;;;;8.90;2.70;;;;;;;19.89;36.21;99757.41;5069718;28;20127;-65
2022/09/05 06:35:56;;;;;;;5.60;2.53;;;;;;;20.04;35.72;99763.34;5051754;28;20055;-65
2022/09/05 06:38:25;;;;;;;11.02;4.00;;;;;;;20.22;35.74;99761.81;5051903;28;20052;-65
2022/09/05 06:41:07;;;;;;;4.63;2.30;;;;;;;20.48;34.81;99764.34;5068578;28;20052;-65
2022/09/05 06:43:51;;;;;;;3.72;2.05;;;;;;;20.67;33.89;99768.75;5068347;28;20095;-66
2022/09/05 06:46:25;;;;;;;3.80;1.90;;;;;;;20.79;33.79;99767.00;5069506;28;20500;-66
2022/09/05 06:49:05;;;;;;;8.90;2.08;;;;;;;20.97;32.99;99757.09;5068560;28;20044;-66
2022/09/05 06:51:36;;;;;;;5.43;2.10;;;;;;;21.13;32.85;99753.00;5068031;28;20085;-65
2022/09/05 06:54:15;;;;;;;5.80;1.73;;;;;;;21.23;32.02;99756.81;5061062;28;20094;-67
2022/09/05 06:56:51;;;;;;;5.82;2.03;;;;;;;21.43;31.92;99757.44;5031729;28;20045;-66
2022/09/05 07:00:11;;;;;;;2.72;2.08;;;;;;;21.73;31.04;99756.72;5033441;28;20405;-66
2022/09/05 07:02:42;;;;;;;4.30;2.00;;;;;;;21.74;30.92;99756.50;4991050;28;20533;-66
2022/09/05 07:05:13;;;;;;;8.35;1.90;;;;;;;21.83;30.63;99738.94;5045843;28;20094;-67
2022/09/05 07:07:47;;;;;;;4.47;1.73;;;;;;;21.95;30.04;99755.19;5048310;28;20045;-66
2022/09/05 07:10:22;;;;;;;4.18;1.80;;;;;;;21.85;30.34;99757.63;5030955;28;20048;-66
2022/09/05 07:12:52;;;;;;;3.92;1.58;;;;;;;21.69;29.58;99743.63;5047471;28;20041;-65
2022/09/05 07:15:30;;;;;;;7.97;1.87;;;;;;;21.85;29.68;99747.63;5014908;28;20045;-66
2022/09/05 07:17:56;;;;;;;3.08;1.40;;;;;;;21.81;29.50;99745.59;5048023;28;20858;-66
2022/09/05 07:20:34;;;;;;;4.55;1.60;;;;;;;22.03;29.57;99752.19;5032273;28;20132;-66
2022/09/05 07:23:06;;;;;;;7.28;1.38;;;;;;;21.81;29.41;99759.13;5020006;28;20143;-66
2022/09/05 07:25:33;;;;;;;5.72;1.77;;;;;;;21.48;29.75;99754.09;5052380;28;20049;-66
2022/09/05 07:28:11;;;;;;;3.53;1.50;;;;;;;21.62;29.72;99751.00;5035335;28;20512;-66
2022/09/05 07:30:40;;;;;;;5.15;1.52;;;;;;;21.57;30.00;99758.94;5051627;28;20053;-66
2022/09/05 07:33:06;;;;;;;4.40;1.80;;;;;;;21.50;29.39;99733.88;5034486;28;20479;-66
2022/09/05 07:35:37;;;;;;;4.93;1.98;;;;;;;22.30;29.09;99746.16;5033614;28;20076;-66
2022/09/05 07:38:20;;;;;;;5.10;2.00;;;;;;;23.42;27.03;99751.38;5051306;28;20131;-66
2022/09/05 07:41:16;;;;;;;6.20;1.98;;;;;;;24.04;26.10;99742.41;5051118;28;20877;-67
2022/09/05 07:43:45;;;;;;;3.13;1.63;;;;;;;24.08;26.21;99740.03;5052113;28;20056;-66
2022/09/05 07:46:18;;;;;;;5.68;1.90;;;;;;;24.00;26.21;99722.22;5051518;28;20044;-66
2022/09/05 07:48:52;;;;;;;5.43;1.88;;;;;;;24.21;25.54;99740.56;5051646;28;20516;-67
2022/09/05 07:51:26;;;;;;;4.32;1.88;;;;;;;24.36;25.37;99734.56;5034151;28;20398;-66
2022/09/05 07:53:54;;;;;;;4.63;2.00;;;;;;;24.50;25.10;99731.31;5035782;28;20059;-67
2022/09/05 07:56:42;;;;;;;7.80;1.77;;;;;;;24.57;24.27;99744.72;5035674;28;20063;-66
2022/09/05 07:59:11;;;;;;;4.85;1.85;;;;;;;24.36;24.61;99735.41;5018355;28;20045;-66
2022/09/05 08:01:41;;;;;;;4.38;2.17;;;;;;;24.09;25.05;99736.25;5018142;28;20051;-66
2022/09/05 08:04:21;;;;;;;10.63;2.17;;;;;;;23.79;25.58;99733.72;5018274;28;20489;-66
2022/09/05 08:06:51;;;;;;;14.32;2.30;;;;;;;23.53;26.12;99738.84;5052458;28;20057;-66
2022/09/05 08:09:22;;;;;;;7.00;2.60;;;;;;;23.68;26.12;99725.63;5034880;28;20041;-66
2022/09/05 08:11:53;;;;;;;4.18;2.10;;;;;;;23.58;25.95;99733.53;5046519;28;20080;-68
2022/09/05 08:15:01;;;;;;;4.90;2.20;;;;;;;23.65;25.47;99731.53;5057661;28;20126;-67
2022/09/05 08:17:29;;;;;;;6.10;1.90;;;;;;;23.44;25.23;99734.88;5058401;28;20070;-67
2022/09/05 08:20:11;;;;;;;4.05;1.80;;;;;;;23.50;25.50;99732.03;5022261;28;20113;-66
2022/09/05 08:22:55;;;;;;;4.25;1.60;;;;;;;23.32;25.83;99726.78;5025880;28;20098;-67
2022/09/05 08:25:31;;;;;;;4.43;1.48;;;;;;;23.11;25.74;99730.88;5054218;28;20044;-66
2022/09/05 08:28:18;;;;;;;5.35;1.58;;;;;;;22.84;25.86;99728.88;5054345;28;20045;-67
2022/09/05 08:30:48;;;;;;;6.53;2.03;;;;;;;22.46;26.32;99726.56;5037515;28;20048;-66
2022/09/05 08:33:20;;;;;;;2.33;1.60;;;;;;;22.36;26.69;99711.94;5049538;28;20071;-67
2022/09/05 08:35:59;;;;;;;4.43;1.67;;;;;;;22.14;27.36;99708.91;5054473;28;20202;-66
2022/09/05 08:38:27;;;;;;;7.18;1.77;;;;;;;21.81;27.72;99719.38;5048696;28;20052;-67
2022/09/05 08:41:09;;;;;;;3.83;1.42;;;;;;;21.97;27.59;99720.63;5035847;28;20095;-67
2022/09/05 08:43:41;;;;;;;4.13;1.63;;;;;;;21.75;27.79;99719.47;5054742;28;20098;-67
2022/09/05 08:46:24;;;;;;;3.85;1.85;;;;;;;21.62;27.59;99704.22;5050550;28;20045;-66
2022/09/05 08:49:32;;;;;;;2.22;1.60;;;;;;;21.69;28.09;99724.69;5067482;28;20099;-66
2022/09/05 08:52:16;;;;;;;3.70;1.65;;;;;;;21.66;28.36;99717.03;5017411;28;20531;-66
2022/09/05 08:55:10;;;;;;;8.48;1.70;;;;;;;21.70;28.17;99720.97;5034056;28;20048;-66
2022/09/05 08:57:45;;;;;;;3.95;1.70;;;;;;;21.75;28.49;99727.59;5050120;28;20152;-66
2022/09/05 09:00:16;;;;;;;6.68;1.80;;;;;;;21.81;28.13;99721.25;5033529;28;20076;-66
2022/09/05 09:02:53;;;;;;;1.95;1.52;;;;;;;21.60;28.51;99722.56;5034015;28;20049;-66
2022/09/05 09:05:20;;;;;;;21.02;6.47;;;;;;;21.41;29.03;99720.91;5049897;28;20064;-65
2022/09/05 09:08:12;;;;;;;7.22;2.60;;;;;;;21.64;28.58;99713.75;5033645;28;20412;-65
2022/09/05 09:10:53;;;;;;;8.18;2.17;;;;;;;21.34;29.23;99718.25;5050259;28;20139;-66
2022/09/05 09:13:34;;;;;;;3.63;2.10;;;;;;;21.50;29.30;99716.84;5048898;28;20053;-66
2022/09/05 09:16:06;;;;;;;;;;;;;;;21.71;28.31;99714.50;5034244;28;20049;-66
2022/09/05 09:18:47;;;;;;;10.10;2.90;;;;;;;21.78;28.37;99719.00;5048288;28;20529;-66
2022/09/05 09:21:22;;;;;;;;;;;;;;;22.23;27.33;99715.69;5049768;28;20045;-66
2022/09/05 09:24:25;;;;;;;4.55;1.67;;;;;;;22.99;25.93;99721.09;5049879;28;20015;-65
2022/09/05 09:27:04;;;;;;;1.92;1.33;;;;;;;22.88;24.83;99714.63;5033326;28;20045;-66
2022/09/05 09:29:35;;;;;;;2.28;1.80;;;;;;;22.77;24.76;99711.91;5016936;28;20052;-66
2022/09/05 09:32:09;;;;;;;;;;;;;;;22.79;25.19;99713.31;5050052;28;20045;-66
2022/09/05 09:34:46;;;;;;;6.88;1.25;;;;;;;22.46;25.79;99710.31;5049866;28;19924;-66
2022/09/05 09:37:49;;;;;;;6.00;1.60;;;;;;;22.30;26.03;99702.88;5049493;28;20166;-66
2022/09/05 09:40:34;;;;;;;2.63;1.35;;;;;;;22.13;25.92;99706.44;5032967;28;20075;-66
2022/09/05 09:43:00;;;;;;;4.43;1.42;;;;;;;21.85;26.30;99703.53;5032776;28;20193;-66
2022/09/05 09:45:40;;;;;;;1.50;1.27;;;;;;;21.90;26.28;99707.19;5031843;28;20040;-66
2022/09/05 09:48:09;;;;;;;5.75;1.20;;;;;;;21.69;26.46;99688.75;5032412;28;20063;-66
2022/09/05 09:50:59;;;;;;;2.20;1.00;;;;;;;21.83;26.54;99708.34;5033102;28;20045;-66
2022/09/05 09:53:46;;;;;;;2.23;1.00;;;;;;;21.91;26.38;99684.50;5059203;28;20089;-67
2022/09/05 09:56:43;;;;;;;7.32;1.40;;;;;;;22.06;26.50;99708.44;5040401;28;20059;-66
2022/09/05 09:59:17;;;;;;;3.15;1.10;;;;;;;22.11;25.86;99709.38;5034093;28;20045;-67
2022/09/05 10:02:23;;;;;;;2.40;1.05;;;;;;;22.25;25.73;99693.81;5052854;28;20052;-67
2022/09/05 10:05:11;;;;;;;4.38;1.20;;;;;;;22.27;25.68;99687.09;5069320;28;20055;-69
2022/09/05 10:08:20;;;;;;;4.10;1.13;;;;;;;22.30;25.70;99702.03;5068918;28;20048;-68
2022/09/05 10:11:13;;;;;;;3.70;1.35;;;;;;;22.26;25.82;99698.16;5030970;28;20048;-69
2022/09/05 10:14:03;;;;;;;3.13;1.30;;;;;;;22.31;26.46;99693.69;5045672;28;20047;-70
2022/09/05 10:16:29;;;;;;;1.70;1.30;;;;;;;22.18;26.55;99693.06;5032652;28;20067;-71
2022/09/05 10:19:03;;;;;;;1.23;1.05;;;;;;;22.62;25.99;99685.28;5040581;28;20504;-70
2022/09/05 10:21:47;;;;;;;3.08;1.13;;;;;;;23.10;25.62;99694.00;5049123;28;20048;-70
2022/09/05 10:24:42;;;;;;;2.63;1.20;;;;;;;23.76;24.68;99690.81;5063441;28;20424;-70
2022/09/05 10:27:43;;;;;;;6.32;1.30;;;;;;;24.40;24.13;99697.72;5035404;28;20496;-70
2022/09/05 10:30:19;;;;;;;6.53;1.55;;;;;;;24.53;23.88;99691.94;5051246;28;20048;-70
2022/09/05 10:33:00;;;;;;;1.20;1.10;;;;;;;23.91;24.66;99677.53;5050973;28;20534;-69
2022/09/05 10:35:35;;;;;;;3.63;1.10;;;;;;;23.05;25.73;99690.34;5048315;28;20055;-72
2022/09/05 10:38:11;;;;;;;2.38;1.50;;;;;;;22.84;26.55;99677.41;5032200;28;20060;-69
2022/09/05 10:40:46;;;;;;;3.28;1.45;;;;;;;22.57;26.49;99676.22;5040520;28;20504;-70
2022/09/05 10:43:28;;;;;;;1.95;1.00;;;;;;;22.13;26.62;99676.69;5048665;28;20049;-69
2022/09/05 10:46:00;;;;;;;2.95;1.13;;;;;;;21.67;27.63;99675.47;5032361;28;20040;-71
2022/09/05 10:48:46;;;;;;;1.88;1.08;;;;;;;21.67;27.78;99674.63;5031404;28;20063;-70
2022/09/05 10:51:15;;;;;;;1.65;1.10;;;;;;;21.87;27.78;99672.50;5047986;28;20045;-70
2022/09/05 10:54:26;;;;;;;2.33;1.10;;;;;;;22.30;26.65;99678.50;5031658;28;20048;-70
2022/09/05 10:57:07;;;;;;;;;;;;;;;22.41;26.40;99677.72;5031825;28;20110;-71
2022/09/05 11:00:03;;;;;;;1.63;1.10;;;;;;;22.23;26.55;99677.81;5047933;28;19927;-71
2022/09/05 11:02:30;;;;;;;3.10;1.20;;;;;;;21.78;27.33;99668.47;5032108;28;20048;-70
2022/09/05 11:04:56;;;;;;;3.08;1.30;;;;;;;21.41;28.12;99667.69;5035784;28;20045;-70
2022/09/05 11:07:40;;;;;;;3.83;1.38;;;;;;;21.31;28.52;99663.88;5029201;28;20270;-70
2022/09/05 11:10:42;;;;;;;1.52;1.10;;;;;;;21.16;29.04;99660.72;5031647;28;20524;-70
2022/09/05 11:13:14;;;;;;;6.55;1.40;;;;;;;20.78;29.73;99666.28;5022256;28;20065;-69
2022/09/05 11:15:45;;;;;;;2.53;1.13;;;;;;;20.55;30.13;99636.41;5014803;28;20059;-69
2022/09/05 11:18:28;;;;;;;3.47;1.30;;;;;;;20.88;29.97;99660.38;5051183;28;20052;-70
2022/09/05 11:20:56;;;;;;;2.08;1.13;;;;;;;20.84;30.04;99656.47;5031550;28;20041;-70
2022/09/05 11:23:34;;;;;;;3.28;1.10;;;;;;;21.00;29.76;99634.31;5014587;28;20976;-70
2022/09/05 11:26:29;;;;;;;1.60;1.00;;;;;;;21.22;29.97;99649.00;5015035;28;20060;-69
2022/09/05 11:29:02;;;;;;;3.35;1.20;;;;;;;20.96;30.28;99641.19;5040372;28;20072;-70
2022/09/05 11:31:52;;;;;;;6.82;1.40;;;;;;;20.82;30.65;99647.78;5014523;28;20041;-71
2022/09/05 11:34:24;;;;;;;3.08;1.00;;;;;;;20.69;31.04;99618.22;5014304;28;20040;-70
2022/09/05 11:36:54;;;;;;;3.58;1.02;;;;;;;20.68;31.38;99644.38;5031275;28;20076;-70
2022/09/05 11:39:52;;;;;;;2.15;1.20;;;;;;;20.36;31.46;99620.41;5030893;28;20053;-70
2022/09/05 11:42:33;;;;;;;4.85;1.27;;;;;;;20.74;31.21;99638.06;5008628;28;20041;-70
2022/09/05 11:45:09;;;;;;;2.55;1.15;;;;;;;20.81;31.16;99630.75;5015082;28;20048;-70
2022/09/05 11:47:56;;;;;;;3.35;1.13;;;;;;;20.90;31.13;99625.88;5030920;28;20065;-72
2022/09/05 11:50:28;;;;;;;5.50;1.10;;;;;;;20.56;31.72;99634.56;5031443;28;20049;-71
2022/09/05 11:53:18;;;;;;;1.77;1.02;;;;;;;20.54;31.80;99634.78;5047864;28;20052;-71
2022/09/05 11:56:21;;;;;;;2.05;1.15;;;;;;;20.57;31.87;99641.59;5030694;28;20056;-70
2022/09/05 11:58:58;;;;;;;1.88;1.00;;;;;;;20.41;32.02;99637.56;5030926;28;20076;-71
2022/09/05 12:02:13;;;;;;;1.52;0.95;;;;;;;20.44;32.02;99639.00;5014401;28;20057;-71
2022/09/05 12:04:46;;;;;;;2.38;1.10;;;;;;;20.19;32.85;99635.50;5021597;28;20041;-72
2022/09/05 12:07:48;;;;;;;1.02;0.80;;;;;;;20.44;33.15;99642.53;5031358;28;20401;-70
2022/09/05 12:10:21;;;;;;;1.48;1.02;;;;;;;20.32;33.71;99636.22;5033659;28;20049;-70
2022/09/05 12:13:02;;;;;;;1.25;0.90;;;;;;;20.54;33.95;99629.38;5031789;28;20052;-69
2022/09/05 12:15:32;;;;;;;;;;;;;;;20.57;34.47;99623.53;5049288;28;20060;-70
2022/09/05 12:18:20;;;;;;;4.68;1.00;;;;;;;20.61;34.81;99623.88;5018497;28;20654;-70
2022/09/05 12:21:30;;;;;;;1.63;1.20;;;;;;;20.60;35.41;99627.66;5044940;28;20537;-70
2022/09/05 12:23:59;;;;;;;3.03;1.05;;;;;;;20.37;35.17;99622.06;5057760;28;20060;-69
2022/09/05 12:26:31;;;;;;;2.53;1.20;;;;;;;20.61;35.56;99618.50;5050469;28;20045;-70
2022/09/05 12:29:02;;;;;;;3.60;1.10;;;;;;;20.67;35.85;99613.03;5033909;28;20052;-69
2022/09/05 12:31:38;;;;;;;1.63;1.10;;;;;;;20.90;35.67;99609.66;5034281;28;20045;-70
2022/09/05 12:34:09;;;;;;;8.93;1.30;;;;;;;20.86;35.36;99605.78;5034340;28;20406;-69
2022/09/05 12:36:42;;;;;;;4.65;1.27;;;;;;;21.03;35.41;99598.75;5051003;28;20077;-69
2022/09/05 12:39:28;;;;;;;3.00;1.30;;;;;;;21.22;35.13;99601.22;5050541;28;20139;-69
2022/09/05 12:42:17;;;;;;;2.22;1.23;;;;;;;21.09;35.14;99598.69;5034172;28;20045;-70
2022/09/05 12:45:08;;;;;;;1.60;1.08;;;;;;;21.41;34.59;99596.59;5034170;28;20488;-70